createdAt,value
2019-03-02T00:00:04.047Z,420
2019-03-02T00:01:15.012Z,421
2019-03-02T00:02:25.992Z,421
2019-03-02T00:03:36.494Z,421
2019-03-02T00:04:49.823Z,421
2019-03-02T00:06:02.148Z,421
2019-03-02T00:07:12.803Z,421
2019-03-02T00:08:26.128Z,421
2019-03-02T00:09:35.901Z,420
2019-03-02T00:10:46.462Z,421
2019-03-02T00:11:57.513Z,421
2019-03-02T00:13:09.202Z,420
2019-03-02T00:14:19.938Z,420
2019-03-02T00:15:31.900Z,420
2019-03-02T00:16:44.202Z,420
2019-03-02T00:17:55.665Z,420
2019-03-02T00:19:07.887Z,420
2019-03-02T00:20:19.200Z,420
2019-03-02T00:21:33.058Z,420
2019-03-02T00:22:44.905Z,421
2019-03-02T00:24:21.568Z,420
2019-03-02T00:25:35.039Z,420
2019-03-02T00:26:47.423Z,421
2019-03-02T00:27:59.308Z,421
2019-03-02T00:29:12.497Z,421
2019-03-02T00:30:22.688Z,421
2019-03-02T00:31:34.110Z,421
2019-03-02T00:32:45.997Z,420
2019-03-02T00:33:57.551Z,420
2019-03-02T00:35:08.730Z,421
2019-03-02T00:36:20.190Z,421
2019-03-02T00:37:34.244Z,421
2019-03-02T00:38:44.862Z,421
2019-03-02T00:39:55.895Z,421
2019-03-02T00:41:08.340Z,421
2019-03-02T00:42:18.726Z,421
2019-03-02T00:43:28.549Z,421
2019-03-02T00:44:39.395Z,421
2019-03-02T00:45:50.306Z,420
2019-03-02T00:47:01.008Z,421
2019-03-02T00:48:12.416Z,420
2019-03-02T00:49:23.812Z,421
2019-03-02T00:50:36.496Z,421
2019-03-02T00:51:47.912Z,421
2019-03-02T00:53:00.104Z,421
2019-03-02T00:54:12.530Z,421
2019-03-02T00:55:19.794Z,421
2019-03-02T00:56:26.993Z,421
2019-03-02T00:57:34.417Z,420
2019-03-02T00:58:41.629Z,420
2019-03-02T00:59:48.605Z,420
2019-03-02T01:00:56.028Z,420
2019-03-02T01:02:06.352Z,420
2019-03-02T01:03:17.414Z,420
2019-03-02T01:04:27.739Z,420
2019-03-02T01:05:37.752Z,420
2019-03-02T01:06:50.018Z,420
2019-03-02T01:08:01.483Z,420
2019-03-02T01:09:12.947Z,420
2019-03-02T01:10:24.191Z,420
2019-03-02T01:11:34.866Z,420
2019-03-02T01:12:45.789Z,420
2019-03-02T01:13:57.644Z,420
2019-03-02T01:15:09.257Z,420
2019-03-02T01:16:21.053Z,421
2019-03-02T01:17:32.364Z,420
2019-03-02T01:18:43.956Z,421
2019-03-02T01:19:54.413Z,421
2019-03-02T01:21:05.601Z,420
2019-03-02T01:22:17.765Z,420
2019-03-02T01:23:29.055Z,420
2019-03-02T01:24:39.707Z,420
2019-03-02T01:25:50.247Z,420
2019-03-02T01:27:01.117Z,421
2019-03-02T01:28:11.188Z,421
2019-03-02T01:29:20.953Z,421
2019-03-02T01:30:31.469Z,420
2019-03-02T01:31:42.285Z,421
2019-03-02T01:32:54.152Z,421
2019-03-02T01:34:08.757Z,421
2019-03-02T01:35:21.694Z,422
2019-03-02T01:36:33.838Z,421
2019-03-02T01:37:45.808Z,422
2019-03-02T01:38:55.438Z,421
2019-03-02T01:40:06.777Z,421
2019-03-02T01:41:19.078Z,421
2019-03-02T01:42:30.832Z,422
2019-03-02T01:43:42.295Z,422
2019-03-02T01:44:52.566Z,421
2019-03-02T01:46:04.620Z,421
2019-03-02T01:47:17.018Z,421
2019-03-02T01:48:28.429Z,422
2019-03-02T01:49:38.261Z,421
2019-03-02T01:50:49.429Z,421
2019-03-02T01:51:59.640Z,421
2019-03-02T01:53:10.795Z,421
2019-03-02T01:54:22.059Z,422
2019-03-02T01:55:32.622Z,421
2019-03-02T01:56:42.885Z,421
2019-03-02T01:57:53.787Z,421
2019-03-02T01:59:04.839Z,421
2019-03-02T02:00:14.811Z,420
2019-03-02T02:01:26.395Z,420
2019-03-02T02:02:37.744Z,421
2019-03-02T02:03:48.526Z,421
2019-03-02T02:04:58.921Z,420
2019-03-02T02:06:09.218Z,421
2019-03-02T02:07:19.863Z,421
2019-03-02T02:08:30.700Z,420
2019-03-02T02:09:41.952Z,420
2019-03-02T02:10:49.159Z,420
2019-03-02T02:11:56.364Z,421
2019-03-02T02:13:07.714Z,421
2019-03-02T02:14:19.864Z,420
2019-03-02T02:15:30.925Z,421
2019-03-02T02:16:42.771Z,420
2019-03-02T02:17:54.090Z,421
2019-03-02T02:19:03.855Z,421
2019-03-02T02:20:15.460Z,421
2019-03-02T02:21:27.420Z,421
2019-03-02T02:22:38.691Z,421
2019-03-02T02:23:50.824Z,421
2019-03-02T02:25:02.634Z,421
2019-03-02T02:26:13.035Z,422
2019-03-02T02:27:24.156Z,421
2019-03-02T02:28:33.971Z,421
2019-03-02T02:29:44.390Z,421
2019-03-02T02:30:51.382Z,421
2019-03-02T02:31:58.599Z,421
2019-03-02T02:33:07.017Z,420
2019-03-02T02:34:24.249Z,420
2019-03-02T02:35:41.650Z,420
2019-03-02T02:36:59.721Z,420
2019-03-02T02:38:17.377Z,421
2019-03-02T02:39:28.833Z,421
2019-03-02T02:40:40.513Z,420
2019-03-02T02:41:47.442Z,421
2019-03-02T02:42:54.655Z,421
2019-03-02T02:44:01.858Z,421
2019-03-02T02:45:17.277Z,421
2019-03-02T02:46:34.793Z,420
2019-03-02T02:47:53.822Z,421
2019-03-02T02:49:12.063Z,421
2019-03-02T02:50:31.596Z,421
2019-03-02T02:51:38.863Z,421
2019-03-02T02:52:46.077Z,421
2019-03-02T02:53:53.278Z,420
2019-03-02T02:55:04.652Z,420
2019-03-02T02:56:21.817Z,421
2019-03-02T02:57:39.735Z,421
2019-03-02T02:58:47.058Z,420
2019-03-02T03:00:02.395Z,421
2019-03-02T03:01:09.340Z,420
2019-03-02T03:02:16.570Z,420
2019-03-02T03:03:23.778Z,421
2019-03-02T03:04:38.173Z,421
2019-03-02T03:05:55.665Z,420
2019-03-02T03:08:45.053Z,421
2019-03-02T03:09:52.257Z,420
2019-03-02T03:11:43.525Z,420
2019-03-02T03:12:56.649Z,421
2019-03-02T03:14:09.118Z,421
2019-03-02T03:15:16.328Z,421
2019-03-02T03:16:23.562Z,420
2019-03-02T03:17:34.381Z,421
2019-03-02T03:18:41.596Z,420
2019-03-02T03:19:48.811Z,421
2019-03-02T03:20:56.018Z,420
2019-03-02T03:22:09.443Z,420
2019-03-02T03:23:26.464Z,421
2019-03-02T03:24:42.306Z,420
2019-03-02T03:25:59.128Z,421
2019-03-02T03:27:14.720Z,421
2019-03-02T03:28:40.130Z,421
2019-03-02T03:29:51.828Z,421
2019-03-02T03:30:58.775Z,421
2019-03-02T03:33:10.947Z,421
2019-03-02T03:34:32.993Z,421
2019-03-02T03:35:40.229Z,420
2019-03-02T03:36:47.180Z,420
2019-03-02T03:37:54.402Z,421
2019-03-02T03:39:09.148Z,421
2019-03-02T03:40:28.608Z,421
2019-03-02T03:41:45.562Z,421
2019-03-02T03:42:52.716Z,420
2019-03-02T03:43:59.933Z,421
2019-03-02T03:45:06.884Z,421
2019-03-02T03:46:24.225Z,420
2019-03-02T03:47:40.428Z,420
2019-03-02T03:48:58.120Z,420
2019-03-02T03:50:15.791Z,420
2019-03-02T03:51:32.532Z,420
2019-03-02T03:52:48.806Z,421
2019-03-02T03:54:09.589Z,420
2019-03-02T03:55:27.949Z,421
2019-03-02T03:56:44.359Z,420
2019-03-02T03:58:02.965Z,420
2019-03-02T03:59:14.140Z,420
2019-03-02T04:00:27.346Z,421
2019-03-02T04:01:34.029Z,420
2019-03-02T04:02:41.254Z,420
2019-03-02T04:03:53.614Z,420
2019-03-02T04:05:10.472Z,420
2019-03-02T04:06:17.682Z,420
2019-03-02T04:07:24.912Z,420
2019-03-02T04:08:32.113Z,420
2019-03-02T04:09:48.753Z,421
2019-03-02T04:11:00.075Z,420
2019-03-02T04:12:12.803Z,420
2019-03-02T04:13:20.009Z,420
2019-03-02T04:14:27.241Z,420
2019-03-02T04:15:44.040Z,420
2019-03-02T04:17:02.237Z,421
2019-03-02T04:18:17.614Z,420
2019-03-02T04:19:24.835Z,421
2019-03-02T04:20:36.365Z,421
2019-03-02T04:21:43.578Z,421
2019-03-02T04:22:50.507Z,420
2019-03-02T04:24:03.818Z,421
2019-03-02T04:25:34.146Z,421
2019-03-02T04:26:40.818Z,421
2019-03-02T04:27:56.740Z,421
2019-03-02T04:29:12.230Z,421
2019-03-02T04:30:19.456Z,421
2019-03-02T04:31:26.666Z,425
2019-03-02T04:32:33.900Z,427
2019-03-02T04:33:45.489Z,426
2019-03-02T04:34:59.182Z,426
2019-03-02T04:36:17.725Z,426
2019-03-02T04:37:25.912Z,425
2019-03-02T04:38:38.127Z,426
2019-03-02T04:39:51.104Z,425
2019-03-02T04:41:04.845Z,425
2019-03-02T04:42:15.438Z,425
2019-03-02T04:43:22.695Z,424
2019-03-02T04:44:31.382Z,424
2019-03-02T04:45:41.050Z,424
2019-03-02T04:46:52.587Z,425
2019-03-02T04:48:04.661Z,427
2019-03-02T04:49:16.073Z,429
2019-03-02T04:50:28.417Z,429
2019-03-02T04:51:40.115Z,428
2019-03-02T04:52:51.340Z,428
2019-03-02T04:54:03.007Z,428
2019-03-02T04:55:15.286Z,429
2019-03-02T04:56:25.617Z,432
2019-03-02T04:57:37.379Z,432
2019-03-02T04:58:48.358Z,430
2019-03-02T04:59:57.887Z,429
2019-03-02T05:01:08.396Z,428
2019-03-02T05:02:20.514Z,428
2019-03-02T05:03:27.740Z,427
2019-03-02T05:04:34.675Z,426
2019-03-02T05:05:44.726Z,426
2019-03-02T05:06:56.210Z,426
2019-03-02T05:08:06.863Z,426
2019-03-02T05:09:18.248Z,427
2019-03-02T05:10:29.834Z,431
2019-03-02T05:11:41.257Z,433
2019-03-02T05:13:03.110Z,433
2019-03-02T05:14:10.350Z,432
2019-03-02T05:15:18.376Z,430
2019-03-02T05:16:29.648Z,433
2019-03-02T05:17:42.846Z,432
2019-03-02T05:18:55.258Z,429
2019-03-02T05:20:06.572Z,428
2019-03-02T05:21:13.525Z,427
2019-03-02T05:22:20.819Z,427
2019-03-02T05:23:31.504Z,427
2019-03-02T05:24:44.425Z,427
2019-03-02T05:25:55.442Z,427
2019-03-02T05:27:02.671Z,427
2019-03-02T05:28:09.900Z,426
2019-03-02T05:29:19.064Z,426
2019-03-02T05:30:31.649Z,426
2019-03-02T05:31:42.558Z,425
2019-03-02T05:32:53.204Z,425
2019-03-02T05:34:05.880Z,430
2019-03-02T05:35:17.344Z,432
2019-03-02T05:36:28.664Z,435
2019-03-02T05:37:41.177Z,434
2019-03-02T05:38:48.393Z,434
2019-03-02T05:39:55.315Z,432
2019-03-02T05:41:04.482Z,432
2019-03-02T05:42:15.112Z,432
2019-03-02T05:43:28.289Z,432
2019-03-02T05:44:35.547Z,429
2019-03-02T05:45:42.734Z,428
2019-03-02T05:46:49.661Z,426
2019-03-02T05:47:56.591Z,424
2019-03-02T05:49:03.794Z,424
2019-03-02T05:50:10.995Z,425
2019-03-02T05:51:18.206Z,425
2019-03-02T05:52:25.133Z,424
2019-03-02T05:53:32.339Z,424
2019-03-02T05:54:42.934Z,424
2019-03-02T05:55:54.948Z,425
2019-03-02T05:57:06.018Z,426
2019-03-02T05:58:17.125Z,426
2019-03-02T05:59:28.337Z,427
2019-03-02T06:00:39.480Z,427
2019-03-02T06:01:46.410Z,428
2019-03-02T06:02:53.614Z,427
2019-03-02T06:04:00.819Z,428
2019-03-02T06:05:07.501Z,428
2019-03-02T06:06:14.724Z,428
2019-03-02T06:07:21.660Z,428
2019-03-02T06:08:32.074Z,428
2019-03-02T06:09:42.412Z,428
2019-03-02T06:10:49.617Z,428
2019-03-02T06:11:56.826Z,428
2019-03-02T06:13:04.029Z,428
2019-03-02T06:14:11.234Z,427
2019-03-02T06:15:18.468Z,428
2019-03-02T06:16:25.408Z,427
2019-03-02T06:17:34.384Z,427
2019-03-02T06:18:46.201Z,427
2019-03-02T06:20:00.592Z,427
2019-03-02T06:21:11.927Z,426
2019-03-02T06:22:22.432Z,427
2019-03-02T06:23:31.205Z,426
2019-03-02T06:24:42.021Z,426
2019-03-02T06:25:48.979Z,426
2019-03-02T06:26:56.192Z,425
2019-03-02T06:28:03.390Z,425
2019-03-02T06:29:10.612Z,425
2019-03-02T06:30:17.537Z,425
2019-03-02T06:31:24.766Z,425
2019-03-02T06:32:34.421Z,425
2019-03-02T06:33:45.841Z,425
2019-03-02T06:34:57.583Z,425
2019-03-02T06:36:10.107Z,424
2019-03-02T06:37:20.821Z,424
2019-03-02T06:38:33.069Z,423
2019-03-02T06:39:45.202Z,423
2019-03-02T06:40:58.026Z,423
2019-03-02T06:42:11.170Z,423
2019-03-02T06:43:22.811Z,422
2019-03-02T06:44:35.054Z,422
2019-03-02T06:45:44.880Z,422
2019-03-02T06:46:58.222Z,422
2019-03-02T06:48:10.777Z,422
2019-03-02T06:49:21.718Z,422
2019-03-02T06:50:35.602Z,420
2019-03-02T06:51:48.205Z,420
2019-03-02T06:53:01.376Z,420
2019-03-02T06:54:14.381Z,419
2019-03-02T06:55:25.892Z,419
2019-03-02T06:56:39.371Z,417
2019-03-02T06:57:52.147Z,416
2019-03-02T06:59:04.992Z,416
2019-03-02T07:00:15.418Z,415
2019-03-02T07:01:26.541Z,414
2019-03-02T07:02:36.383Z,413
2019-03-02T07:03:47.270Z,413
2019-03-02T07:04:58.953Z,412
2019-03-02T07:06:11.613Z,411
2019-03-02T07:07:22.814Z,410
2019-03-02T07:08:36.328Z,408
2019-03-02T07:09:46.642Z,407
2019-03-02T07:10:58.864Z,408
2019-03-02T07:12:10.273Z,408
2019-03-02T07:13:23.003Z,407
2019-03-02T07:14:33.755Z,408
2019-03-02T07:15:45.500Z,408
2019-03-02T07:16:57.176Z,408
2019-03-02T07:18:08.644Z,408
2019-03-02T07:19:18.185Z,409
2019-03-02T07:20:28.749Z,408
2019-03-02T07:21:42.890Z,408
2019-03-02T07:22:53.740Z,408
2019-03-02T07:24:00.943Z,408
2019-03-02T07:25:08.157Z,408
2019-03-02T07:26:20.905Z,408
2019-03-02T07:27:30.974Z,408
2019-03-02T07:28:43.025Z,407
2019-03-02T07:29:55.073Z,408
2019-03-02T07:31:02.332Z,408
2019-03-02T07:32:09.535Z,408
2019-03-02T07:33:16.758Z,408
2019-03-02T07:34:23.962Z,408
2019-03-02T07:35:31.680Z,407
2019-03-02T07:36:38.886Z,408
2019-03-02T07:37:46.479Z,407
2019-03-02T07:38:57.386Z,408
2019-03-02T07:40:10.163Z,408
2019-03-02T07:41:23.189Z,407
2019-03-02T07:42:34.825Z,408
2019-03-02T07:43:48.129Z,408
2019-03-02T07:44:59.354Z,408
2019-03-02T07:46:12.733Z,408
2019-03-02T07:47:25.054Z,408
2019-03-02T07:48:37.647Z,408
2019-03-02T07:49:50.688Z,408
2019-03-02T07:51:05.056Z,408
2019-03-02T07:52:19.015Z,408
2019-03-02T07:53:30.912Z,408
2019-03-02T07:54:43.354Z,408
2019-03-02T07:55:53.501Z,408
2019-03-02T07:57:10.439Z,408
2019-03-02T07:58:21.388Z,408
2019-03-02T07:59:31.196Z,408
2019-03-02T08:00:42.184Z,408
2019-03-02T08:01:53.930Z,408
2019-03-02T08:03:01.205Z,409
2019-03-02T08:04:08.409Z,408
2019-03-02T08:05:16.329Z,408
2019-03-02T08:06:27.394Z,409
2019-03-02T08:07:39.312Z,408
2019-03-02T08:08:50.002Z,409
2019-03-02T08:10:03.297Z,408
2019-03-02T08:11:14.333Z,408
2019-03-02T08:12:26.142Z,408
2019-03-02T08:13:37.744Z,408
2019-03-02T08:14:48.775Z,408
2019-03-02T08:16:03.140Z,408
2019-03-02T08:17:14.424Z,409
2019-03-02T08:18:29.175Z,408
2019-03-02T08:19:36.523Z,408
2019-03-02T08:20:43.728Z,408
2019-03-02T08:21:50.952Z,408
2019-03-02T08:22:58.188Z,408
2019-03-02T08:24:05.377Z,408
2019-03-02T08:25:13.099Z,408
2019-03-02T08:26:21.879Z,408
2019-03-02T08:27:35.755Z,408
2019-03-02T08:28:47.133Z,408
2019-03-02T08:29:58.097Z,409
2019-03-02T08:31:09.929Z,408
2019-03-02T08:32:22.075Z,408
2019-03-02T08:33:34.453Z,408
2019-03-02T08:34:47.109Z,408
2019-03-02T08:35:54.057Z,408
2019-03-02T08:37:01.011Z,407
2019-03-02T08:38:07.916Z,407
2019-03-02T08:39:15.682Z,408
2019-03-02T08:40:25.091Z,407
2019-03-02T08:41:38.698Z,408
2019-03-02T08:42:45.906Z,406
2019-03-02T08:43:53.127Z,406
2019-03-02T08:44:59.779Z,406
2019-03-02T08:46:09.295Z,406
2019-03-02T08:47:16.239Z,406
2019-03-02T08:48:23.458Z,406
2019-03-02T08:49:30.663Z,405
2019-03-02T08:50:37.872Z,405
2019-03-02T08:51:45.080Z,405
2019-03-02T08:52:52.292Z,406
2019-03-02T08:53:59.509Z,406
2019-03-02T08:55:05.890Z,406
2019-03-02T08:56:13.175Z,406
2019-03-02T08:57:23.936Z,407
2019-03-02T08:58:31.154Z,407
2019-03-02T08:59:39.346Z,407
2019-03-02T09:00:46.264Z,408
2019-03-02T09:01:56.332Z,408
2019-03-02T09:03:03.540Z,408
2019-03-02T09:04:15.156Z,408
2019-03-02T09:05:50.633Z,408
2019-03-02T09:06:58.843Z,407
2019-03-02T09:08:05.795Z,407
2019-03-02T09:09:12.998Z,407
2019-03-02T09:10:22.659Z,407
2019-03-02T09:11:29.872Z,406
2019-03-02T09:12:37.081Z,407
2019-03-02T09:13:44.006Z,407
2019-03-02T09:14:50.951Z,407
2019-03-02T09:16:06.671Z,407
2019-03-02T09:17:18.888Z,407
2019-03-02T09:18:29.114Z,407
2019-03-02T09:19:55.651Z,408
2019-03-02T09:21:13.618Z,408
2019-03-02T09:22:25.186Z,408
2019-03-02T09:23:37.114Z,407
2019-03-02T09:24:50.480Z,408
2019-03-02T09:25:57.139Z,407
2019-03-02T09:27:07.821Z,407
2019-03-02T09:28:15.031Z,407
2019-03-02T09:29:22.227Z,406
2019-03-02T09:30:30.100Z,405
2019-03-02T09:31:40.326Z,406
2019-03-02T09:32:52.323Z,406
2019-03-02T09:34:05.077Z,406
2019-03-02T09:35:17.242Z,406
2019-03-02T09:36:27.655Z,406
2019-03-02T09:37:43.828Z,406
2019-03-02T09:38:58.588Z,406
2019-03-02T09:40:10.069Z,406
2019-03-02T09:41:26.303Z,406
2019-03-02T09:42:41.695Z,406
2019-03-02T09:43:49.118Z,406
2019-03-02T09:44:56.062Z,406
2019-03-02T09:46:03.271Z,407
2019-03-02T09:47:13.357Z,406
2019-03-02T09:48:25.512Z,407
2019-03-02T09:49:38.857Z,407
2019-03-02T09:50:45.812Z,407
2019-03-02T09:51:53.026Z,406
2019-03-02T09:52:59.959Z,406
2019-03-02T09:54:07.176Z,404
2019-03-02T09:55:20.216Z,404
2019-03-02T09:56:27.996Z,403
2019-03-02T09:57:34.942Z,402
2019-03-02T09:58:42.144Z,402
2019-03-02T09:59:49.361Z,403
2019-03-02T10:01:04.854Z,403
2019-03-02T10:02:16.175Z,404
2019-03-02T10:03:27.723Z,402
2019-03-02T10:04:40.654Z,403
2019-03-02T10:05:51.431Z,404
2019-03-02T10:07:03.745Z,404
2019-03-02T10:08:14.705Z,404
2019-03-02T10:09:25.801Z,403
2019-03-02T10:10:34.290Z,404
2019-03-02T10:11:41.652Z,404
2019-03-02T10:12:53.893Z,404
2019-03-02T10:14:00.859Z,403
2019-03-02T10:15:08.081Z,404
2019-03-02T10:16:15.297Z,404
2019-03-02T10:17:22.749Z,403
2019-03-02T10:18:29.699Z,404
2019-03-02T10:19:36.872Z,403
2019-03-02T10:20:44.641Z,402
2019-03-02T10:21:51.811Z,402
2019-03-02T10:23:05.448Z,401
2019-03-02T10:24:18.004Z,402
2019-03-02T10:25:33.233Z,402
2019-03-02T10:26:44.471Z,402
2019-03-02T10:27:58.781Z,402
2019-03-02T10:29:11.974Z,401
2019-03-02T10:30:25.834Z,401
2019-03-02T10:31:34.304Z,402
2019-03-02T10:32:41.509Z,402
2019-03-02T10:33:48.724Z,402
2019-03-02T10:34:55.922Z,402
2019-03-02T10:36:03.132Z,402
2019-03-02T10:37:10.339Z,401
2019-03-02T10:38:20.606Z,402
2019-03-02T10:39:33.653Z,403
2019-03-02T10:40:45.902Z,403
2019-03-02T10:42:00.492Z,404
2019-03-02T10:43:11.830Z,404
2019-03-02T10:44:22.830Z,404
2019-03-02T10:45:30.044Z,404
2019-03-02T10:46:36.979Z,403
2019-03-02T10:47:44.615Z,403
2019-03-02T10:48:52.033Z,403
2019-03-02T10:49:59.251Z,403
2019-03-02T10:51:06.477Z,401
2019-03-02T10:52:14.752Z,402
2019-03-02T10:53:27.490Z,402
2019-03-02T10:54:36.494Z,402
2019-03-02T10:55:49.165Z,402
2019-03-02T10:57:00.991Z,401
2019-03-02T10:58:10.299Z,401
2019-03-02T10:59:17.458Z,401
2019-03-02T11:00:31.734Z,400
2019-03-02T11:01:44.922Z,400
2019-03-02T11:02:57.294Z,399
2019-03-02T11:04:09.085Z,398
2019-03-02T11:05:21.048Z,398
2019-03-02T11:06:34.116Z,400
2019-03-02T11:07:44.790Z,401
2019-03-02T11:09:06.885Z,400
2019-03-02T11:10:17.929Z,401
2019-03-02T11:11:31.950Z,401
2019-03-02T11:12:45.274Z,400
2019-03-02T11:13:56.389Z,401
2019-03-02T11:15:08.648Z,401
2019-03-02T11:16:15.956Z,402
2019-03-02T11:17:24.595Z,402
2019-03-02T11:18:35.985Z,403
2019-03-02T11:19:48.264Z,403
2019-03-02T11:21:00.071Z,403
2019-03-02T11:22:10.678Z,403
2019-03-02T11:23:24.232Z,402
2019-03-02T11:24:31.651Z,401
2019-03-02T11:25:38.859Z,402
2019-03-02T11:26:46.088Z,402
2019-03-02T11:27:55.247Z,402
2019-03-02T11:29:02.688Z,403
2019-03-02T11:30:09.905Z,403
2019-03-02T11:31:17.326Z,402
2019-03-02T11:32:24.528Z,403
2019-03-02T11:33:33.099Z,402
2019-03-02T11:34:40.031Z,402
2019-03-02T11:35:47.256Z,402
2019-03-02T11:36:54.297Z,403
2019-03-02T11:38:03.267Z,403
2019-03-02T11:39:13.780Z,403
2019-03-02T11:40:32.929Z,403
2019-03-02T11:41:40.246Z,403
2019-03-02T11:42:47.453Z,403
2019-03-02T11:43:54.384Z,402
2019-03-02T11:45:01.594Z,402
2019-03-02T11:46:09.102Z,403
2019-03-02T11:47:16.295Z,403
2019-03-02T11:48:23.506Z,403
2019-03-02T11:49:38.403Z,403
2019-03-02T11:50:52.316Z,402
2019-03-02T11:52:03.601Z,403
2019-03-02T11:53:17.067Z,403
2019-03-02T11:54:30.074Z,403
2019-03-02T11:55:37.301Z,403
2019-03-02T11:56:47.673Z,402
2019-03-02T11:57:58.808Z,403
2019-03-02T11:59:10.574Z,402
2019-03-02T12:00:22.496Z,402
2019-03-02T12:01:35.373Z,401
2019-03-02T12:02:42.092Z,400
2019-03-02T12:03:49.305Z,400
2019-03-02T12:04:56.532Z,400
2019-03-02T12:06:07.841Z,401
2019-03-02T12:07:15.048Z,401
2019-03-02T12:08:24.031Z,401
2019-03-02T12:09:31.246Z,402
2019-03-02T12:10:38.188Z,402
2019-03-02T12:11:48.823Z,402
2019-03-02T12:12:57.208Z,402
2019-03-02T12:14:11.318Z,402
2019-03-02T12:15:18.588Z,401
2019-03-02T12:16:28.437Z,401
2019-03-02T12:17:42.426Z,401
2019-03-02T12:18:55.445Z,401
2019-03-02T12:20:09.731Z,402
2019-03-02T12:21:22.166Z,402
2019-03-02T12:22:35.641Z,403
2019-03-02T12:23:42.878Z,402
2019-03-02T12:24:50.085Z,402
2019-03-02T12:25:57.291Z,403
2019-03-02T12:27:04.504Z,403
2019-03-02T12:28:11.178Z,403
2019-03-02T12:29:18.407Z,402
2019-03-02T12:30:27.710Z,402
2019-03-02T12:31:34.631Z,402
2019-03-02T12:32:46.333Z,401
2019-03-02T12:33:58.658Z,401
2019-03-02T12:35:05.928Z,400
2019-03-02T12:36:17.255Z,400
2019-03-02T12:37:28.308Z,400
2019-03-02T12:38:50.154Z,400
2019-03-02T12:40:04.622Z,400
2019-03-02T12:41:16.699Z,399
2019-03-02T12:42:30.305Z,398
2019-03-02T12:43:45.816Z,398
2019-03-02T12:44:58.975Z,398
2019-03-02T12:46:16.926Z,398
2019-03-02T12:47:23.881Z,398
2019-03-02T12:48:30.803Z,397
2019-03-02T12:49:37.735Z,396
2019-03-02T12:50:44.670Z,395
2019-03-02T12:51:51.604Z,395
2019-03-02T12:52:58.816Z,395
2019-03-02T12:54:07.245Z,396
2019-03-02T12:55:21.849Z,396
2019-03-02T12:56:34.253Z,396
2019-03-02T12:57:46.646Z,395
2019-03-02T12:59:02.067Z,395
2019-03-02T13:00:09.741Z,395
2019-03-02T13:01:16.673Z,395
2019-03-02T13:02:23.602Z,395
2019-03-02T13:03:35.043Z,396
2019-03-02T13:04:46.174Z,397
2019-03-02T13:05:58.808Z,399
2019-03-02T13:07:05.639Z,399
2019-03-02T13:08:15.922Z,399
2019-03-02T13:09:22.868Z,399
2019-03-02T13:10:30.076Z,399
2019-03-02T13:11:37.283Z,400
2019-03-02T13:12:46.884Z,400
2019-03-02T13:13:58.486Z,400
2019-03-02T13:15:10.655Z,400
2019-03-02T13:16:24.998Z,399
2019-03-02T13:17:38.447Z,399
2019-03-02T13:18:51.649Z,399
2019-03-02T13:20:03.872Z,398
2019-03-02T13:21:16.471Z,397
2019-03-02T13:22:30.999Z,396
2019-03-02T13:23:43.515Z,397
2019-03-02T13:24:57.782Z,397
2019-03-02T13:26:14.807Z,397
2019-03-02T13:27:26.399Z,397
2019-03-02T13:28:36.932Z,398
2019-03-02T13:29:54.626Z,397
2019-03-02T13:31:09.127Z,395
2019-03-02T13:32:21.458Z,396
2019-03-02T13:33:35.718Z,396
2019-03-02T13:34:48.253Z,397
2019-03-02T13:36:07.879Z,397
2019-03-02T13:37:21.773Z,397
2019-03-02T13:38:34.593Z,396
2019-03-02T13:39:41.865Z,396
2019-03-02T13:40:48.823Z,397
2019-03-02T13:41:56.032Z,397
2019-03-02T13:43:05.612Z,397
2019-03-02T13:44:12.833Z,397
2019-03-02T13:45:21.426Z,397
2019-03-02T13:46:35.928Z,398
2019-03-02T13:47:50.217Z,397
2019-03-02T13:49:02.743Z,399
2019-03-02T13:50:15.268Z,399
2019-03-02T13:51:25.853Z,398
2019-03-02T13:52:40.190Z,398
2019-03-02T13:54:28.175Z,399
2019-03-02T13:55:35.389Z,399
2019-03-02T13:56:42.317Z,399
2019-03-02T13:57:49.265Z,398
2019-03-02T13:58:56.819Z,399
2019-03-02T14:00:09.145Z,398
2019-03-02T14:01:16.626Z,399
2019-03-02T14:02:23.836Z,399
2019-03-02T14:03:30.737Z,399
2019-03-02T14:04:39.969Z,399
2019-03-02T14:05:47.182Z,400
2019-03-02T14:06:58.107Z,400
2019-03-02T14:08:08.855Z,400
2019-03-02T14:09:21.490Z,399
2019-03-02T14:10:28.748Z,399
2019-03-02T14:11:40.840Z,398
2019-03-02T14:12:54.209Z,398
2019-03-02T14:14:09.321Z,399
2019-03-02T14:15:23.023Z,399
2019-03-02T14:16:36.681Z,399
2019-03-02T14:17:43.896Z,399
2019-03-02T14:18:54.835Z,400
2019-03-02T14:20:03.496Z,400
2019-03-02T14:21:10.706Z,399
2019-03-02T14:22:17.925Z,400
2019-03-02T14:23:33.035Z,400
2019-03-02T14:24:46.849Z,400
2019-03-02T14:26:01.570Z,401
2019-03-02T14:27:08.565Z,400
2019-03-02T14:28:15.985Z,400
2019-03-02T14:29:23.216Z,400
2019-03-02T14:30:30.142Z,400
2019-03-02T14:31:39.454Z,400
2019-03-02T14:32:53.392Z,399
2019-03-02T14:34:08.910Z,398
2019-03-02T14:35:21.738Z,398
2019-03-02T14:36:36.328Z,400
2019-03-02T14:37:48.871Z,399
2019-03-02T14:39:03.259Z,399
2019-03-02T14:40:15.553Z,398
2019-03-02T14:41:30.064Z,397
2019-03-02T14:42:43.366Z,398
2019-03-02T14:43:58.340Z,397
2019-03-02T14:45:11.320Z,397
2019-03-02T14:46:24.646Z,397
2019-03-02T14:47:37.535Z,397
2019-03-02T14:48:50.654Z,397
2019-03-02T14:50:08.723Z,397
2019-03-02T14:51:22.057Z,398
2019-03-02T14:52:34.450Z,398
2019-03-02T14:53:46.117Z,398
2019-03-02T14:54:57.792Z,398
2019-03-02T14:56:13.701Z,399
2019-03-02T14:57:25.745Z,398
2019-03-02T14:58:38.907Z,399
2019-03-02T14:59:51.459Z,400
2019-03-02T15:01:04.663Z,399
2019-03-02T15:02:17.721Z,400
2019-03-02T15:03:30.569Z,399
2019-03-02T15:04:43.835Z,400
2019-03-02T15:06:08.508Z,400
2019-03-02T15:07:23.324Z,400
2019-03-02T15:08:38.310Z,401
2019-03-02T15:09:50.846Z,401
2019-03-02T15:11:04.496Z,401
2019-03-02T15:12:16.965Z,401
2019-03-02T15:13:30.670Z,401
2019-03-02T15:14:46.599Z,401
2019-03-02T15:16:00.074Z,401
2019-03-02T15:17:13.172Z,401
2019-03-02T15:18:30.156Z,401
2019-03-02T15:19:58.149Z,401
2019-03-02T15:21:12.932Z,401
2019-03-02T15:22:25.322Z,401
2019-03-02T15:23:40.009Z,401
2019-03-02T15:24:54.791Z,401
2019-03-02T15:26:07.561Z,401
2019-03-02T15:27:21.503Z,401
2019-03-02T15:28:37.605Z,400
2019-03-02T15:29:51.675Z,400
2019-03-02T15:31:06.519Z,400
2019-03-02T15:32:21.750Z,401
2019-03-02T15:33:37.615Z,400
2019-03-02T15:34:57.799Z,400
2019-03-02T15:36:22.436Z,400
2019-03-02T15:37:29.644Z,400
2019-03-02T15:38:41.394Z,400
2019-03-02T15:39:54.964Z,400
2019-03-02T15:41:09.120Z,400
2019-03-02T15:42:22.173Z,400
2019-03-02T15:43:35.849Z,400
2019-03-02T15:44:47.534Z,400
2019-03-02T15:45:59.894Z,400
2019-03-02T15:47:15.353Z,401
2019-03-02T15:48:28.591Z,401
2019-03-02T15:49:41.506Z,401
2019-03-02T15:50:55.429Z,401
2019-03-02T15:52:08.851Z,402
2019-03-02T15:53:21.578Z,401
2019-03-02T15:54:33.677Z,402
2019-03-02T15:55:48.805Z,402
2019-03-02T15:57:04.065Z,402
2019-03-02T15:58:11.289Z,402
2019-03-02T15:59:18.236Z,403
2019-03-02T16:00:25.079Z,402
2019-03-02T16:01:32.276Z,402
2019-03-02T16:02:43.503Z,402
2019-03-02T16:03:58.522Z,403
2019-03-02T16:05:12.368Z,403
2019-03-02T16:06:27.014Z,403
2019-03-02T16:07:39.553Z,403
2019-03-02T16:08:53.519Z,403
2019-03-02T16:10:07.178Z,403
2019-03-02T16:11:32.855Z,403
2019-03-02T16:12:45.603Z,404
2019-03-02T16:13:55.988Z,403
2019-03-02T16:15:13.500Z,404
2019-03-02T16:16:28.824Z,404
2019-03-02T16:17:41.354Z,404
2019-03-02T16:18:55.311Z,404
2019-03-02T16:20:07.438Z,404
2019-03-02T16:21:21.146Z,403
2019-03-02T16:22:34.231Z,404
2019-03-02T16:23:48.557Z,404